Time;durP1;ratioP1;P1;durP2;ratioP2;P2;SDS_P1;SDS_P2;PMS_P1;PMS_P2;Temp;Humidity;BMP_temperature;BMP_pressure;BME280_temperature;BME280_humidity;BME280_pressure;Samples;Min_cycle;Max_cycle;Signal;HPM_P1;HPM_P2
2023/05/15 00:01:22;;;;;;;17.43;12.97;;;11.50;99.90;;;;;;5067890;28;20212;-94
2023/05/15 00:03:48;;;;;;;17.80;12.63;;;11.60;99.90;;;;;;5077336;28;20202;-94
2023/05/15 00:06:15;;;;;;;18.67;11.97;;;11.60;99.90;;;;;;5077054;28;20200;-93
2023/05/15 00:08:42;;;;;;;18.03;12.43;;;11.70;99.90;;;;;;5065838;28;20571;-94
2023/05/15 00:11:10;;;;;;;16.87;12.43;;;11.70;99.90;;;;;;5057169;28;20204;-94
2023/05/15 00:13:37;;;;;;;20.23;12.63;;;11.80;99.90;;;;;;5044954;28;20287;-94
2023/05/15 00:16:05;;;;;;;17.17;13.10;;;11.90;99.90;;;;;;5036884;28;20743;-93
2023/05/15 00:18:33;;;;;;;17.00;12.47;;;11.90;99.90;;;;;;5037675;28;20203;-95
2023/05/15 00:21:00;;;;;;;16.17;12.87;;;11.90;99.90;;;;;;5056654;28;20194;-93
2023/05/15 00:23:26;;;;;;;17.73;13.60;;;12.00;99.90;;;;;;5056758;28;20665;-94
2023/05/15 00:25:53;;;;;;;17.10;12.73;;;12.00;99.90;;;;;;5056763;28;20226;-95
2023/05/15 00:28:21;;;;;;;15.80;13.60;;;12.00;1.00;;;;;;5057118;28;20199;-94
2023/05/15 00:30:48;;;;;;;23.77;13.90;;;12.00;1.00;;;;;;5062727;28;20203;-95
2023/05/15 00:33:15;;;;;;;18.77;14.47;;;12.10;1.00;;;;;;5054487;28;20355;-94
2023/05/15 00:35:42;;;;;;;19.53;13.50;;;12.10;1.00;;;;;;5036555;28;20258;-94
2023/05/15 00:38:09;;;;;;;16.97;13.97;;;12.20;1.00;;;;;;5036636;28;20207;-95
2023/05/15 00:40:37;;;;;;;17.07;13.20;;;12.20;1.00;;;;;;5036850;28;20208;-94
2023/05/15 00:43:06;;;;;;;15.50;12.63;;;12.20;1.00;;;;;;5036756;28;20788;-94
2023/05/15 00:45:36;;;;;;;18.00;12.57;;;12.20;1.00;;;;;;5037373;28;20304;-94
2023/05/15 00:48:03;;;;;;;14.13;12.57;;;12.20;1.00;;;;;;5053167;28;20196;-94
2023/05/15 00:50:32;;;;;;;16.63;12.60;;;12.30;99.90;;;;;;5056394;28;20202;-94
2023/05/15 00:53:00;;;;;;;15.83;12.77;;;12.30;99.90;;;;;;5055839;28;20663;-94
2023/05/15 00:55:28;;;;;;;13.97;12.47;;;12.40;99.90;;;;;;5056426;28;20223;-94
2023/05/15 00:57:57;;;;;;;15.60;12.53;;;12.40;99.90;;;;;;5049737;28;20191;-93
2023/05/15 01:00:24;;;;;;;20.63;12.63;;;12.50;99.90;;;;;;5036151;28;20207;-95
2023/05/15 01:02:53;;;;;;;15.43;12.13;;;12.60;99.90;;;;;;5036144;28;20293;-94
2023/05/15 01:05:20;;;;;;;16.40;11.97;;;12.70;99.90;;;;;;5035999;28;20198;-93
2023/05/15 01:07:55;;;;;;;16.87;12.37;;;12.70;99.90;;;;;;5051288;28;20209;-94
2023/05/15 01:10:22;;;;;;;20.20;12.37;;;12.80;99.90;;;;;;5055901;28;20577;-94
2023/05/15 01:12:51;;;;;;;16.83;11.73;;;12.90;82.00;;;;;;5061265;28;20205;-93
2023/05/15 01:15:17;;;;;;;15.93;12.43;;;12.90;36.50;;;;;;5055130;28;20197;-94
2023/05/15 01:17:45;;;;;;;16.47;12.17;;;13.00;1.00;;;;;;5055640;28;20206;-94
2023/05/15 01:20:18;;;;;;;16.57;11.97;;;13.00;1.00;;;;;;5055565;28;20198;-95
2023/05/15 01:22:59;;;;;;;15.23;11.30;;;13.00;1.00;;;;;;5055439;28;20198;-93
2023/05/15 01:25:52;;;;;;;13.73;11.37;;;13.10;1.00;;;;;;5055971;28;20182;-94
2023/05/15 01:28:23;;;;;;;16.90;11.90;;;13.10;1.00;;;;;;5055802;28;20205;-93
2023/05/15 01:30:52;;;;;;;15.53;12.10;;;13.10;1.00;;;;;;5060871;28;20196;-93
2023/05/15 01:33:24;;;;;;;14.03;11.70;;;13.10;1.00;;;;;;5052507;28;20201;-94
2023/05/15 01:35:59;;;;;;;16.87;11.90;;;13.00;1.00;;;;;;5035731;28;20208;-93
2023/05/15 01:38:32;;;;;;;16.57;12.10;;;12.90;1.00;;;;;;5055076;28;20608;-94
2023/05/15 01:41:05;;;;;;;16.53;11.87;;;12.80;1.00;;;;;;5039274;28;20194;-94
2023/05/15 01:43:37;;;;;;;15.87;12.13;;;12.70;1.00;;;;;;5035293;28;20211;-94
2023/05/15 01:46:05;;;;;;;13.37;11.77;;;12.70;1.00;;;;;;5035542;28;20186;-93
2023/05/15 01:48:35;;;;;;;14.83;11.10;;;12.60;1.00;;;;;;5035164;28;20205;-94
2023/05/15 01:51:04;;;;;;;16.47;12.27;;;12.50;89.00;;;;;;5035147;28;20210;-94
2023/05/15 01:53:33;;;;;;;15.30;11.43;;;12.40;99.90;;;;;;5035277;28;20208;-93
2023/05/15 01:56:01;;;;;;;14.83;11.13;;;12.30;99.90;;;;;;5035252;28;20226;-94
2023/05/15 01:58:28;;;;;;;19.20;11.67;;;12.30;99.90;;;;;;5049182;28;20213;-94
2023/05/15 02:00:57;;;;;;;14.57;11.50;;;12.30;99.90;;;;;;5055122;28;20203;-94
2023/05/15 02:03:25;;;;;;;15.07;11.53;;;12.20;99.90;;;;;;5051273;28;20209;-94
2023/05/15 02:05:55;;;;;;;17.73;12.13;;;12.20;99.90;;;;;;5035263;28;20200;-93
2023/05/15 02:08:24;;;;;;;13.77;11.57;;;12.10;1.00;;;;;;5034961;28;20182;-94
2023/05/15 02:10:52;;;;;;;16.87;11.83;;;12.10;1.00;;;;;;5043935;28;20280;-94
2023/05/15 02:13:19;;;;;;;13.67;11.37;;;12.10;1.00;;;;;;5034923;28;20200;-94
2023/05/15 02:15:46;;;;;;;15.27;11.80;;;12.10;1.00;;;;;;5035011;28;20227;-95
2023/05/15 02:18:15;;;;;;;18.00;11.60;;;12.10;1.00;;;;;;5035041;28;20196;-93
2023/05/15 02:20:41;;;;;;;14.13;11.70;;;12.10;1.00;;;;;;5034939;28;20673;-95
2023/05/15 02:23:08;;;;;;;15.07;12.43;;;12.00;1.00;;;;;;5044047;28;20284;-94
2023/05/15 02:25:43;;;;;;;16.00;12.63;;;12.10;1.00;;;;;;5054366;28;20683;-94
2023/05/15 02:28:17;;;;;;;14.80;13.10;;;12.00;1.00;;;;;;5054353;28;20194;-94
2023/05/15 02:30:54;;;;;;;17.83;12.70;;;12.00;1.00;;;;;;5054389;28;20181;-95
2023/05/15 02:33:30;;;;;;;18.00;13.37;;;12.00;1.00;;;;;;5051087;28;20209;-93
2023/05/15 02:36:01;;;;;;;15.17;13.00;;;12.00;1.00;;;;;;5043551;28;20197;-94
2023/05/15 02:38:32;;;;;;;17.47;13.40;;;12.10;1.00;;;;;;5054473;28;20196;-93
2023/05/15 02:41:00;;;;;;;16.20;13.20;;;12.10;1.00;;;;;;5054397;28;20206;-94
2023/05/15 02:43:28;;;;;;;17.00;13.37;;;12.10;1.00;;;;;;5054454;28;20208;-93
2023/05/15 02:45:56;;;;;;;16.93;12.47;;;12.10;1.00;;;;;;5053782;28;20231;-93
2023/05/15 02:48:26;;;;;;;15.17;12.63;;;12.20;1.00;;;;;;5034495;28;20202;-94
2023/05/15 02:50:53;;;;;;;18.57;12.50;;;12.20;1.00;;;;;;5034625;28;20209;-95
2023/05/15 02:53:20;;;;;;;13.17;11.70;;;12.30;1.00;;;;;;5034687;28;20196;-95
2023/05/15 02:55:47;;;;;;;15.33;12.40;;;12.40;1.00;;;;;;5034384;28;20194;-94
2023/05/15 02:58:14;;;;;;;16.03;12.63;;;12.50;99.90;;;;;;5034309;28;20569;-94
2023/05/15 03:00:41;;;;;;;15.07;12.57;;;12.50;99.90;;;;;;5047464;28;20190;-95
2023/05/15 03:03:07;;;;;;;15.03;12.43;;;12.50;99.90;;;;;;5040495;28;20203;-94
2023/05/15 03:05:36;;;;;;;18.13;13.30;;;12.60;99.90;;;;;;5054085;28;20281;-94
2023/05/15 03:08:02;;;;;;;14.73;12.33;;;12.60;99.90;;;;;;5037207;28;20198;-94
2023/05/15 03:10:29;;;;;;;17.37;12.90;;;12.60;99.90;;;;;;5042214;28;20203;-95
2023/05/15 03:12:58;;;;;;;16.97;12.50;;;12.70;99.90;;;;;;5057899;28;20550;-94
2023/05/15 03:15:25;;;;;;;20.70;13.20;;;12.70;99.90;;;;;;5055256;28;20576;-94
2023/05/15 03:17:51;;;;;;;19.97;14.07;;;12.70;99.90;;;;;;5038415;28;20206;-95
2023/05/15 03:20:18;;;;;;;14.20;12.13;;;12.80;99.90;;;;;;5038100;28;20199;-94
2023/05/15 03:22:46;;;;;;;15.80;12.40;;;12.80;1.00;;;;;;5044024;28;20566;-94
2023/05/15 03:25:13;;;;;;;14.27;12.07;;;12.80;1.00;;;;;;5057659;28;20195;-94
2023/05/15 03:27:40;;;;;;;18.50;12.03;;;12.80;1.00;;;;;;5058201;28;20556;-95
2023/05/15 03:30:08;;;;;;;13.73;12.20;;;12.80;1.00;;;;;;5057954;28;20198;-94
2023/05/15 03:32:35;;;;;;;13.80;11.60;;;12.80;1.00;;;;;;5057970;28;20193;-96
2023/05/15 03:35:01;;;;;;;12.83;11.47;;;12.90;1.00;;;;;;5057830;28;20210;-94
2023/05/15 03:37:28;;;;;;;10.73;9.63;;;12.90;1.00;;;;;;5057781;28;20230;-94
2023/05/15 03:39:56;;;;;;;11.67;9.33;;;12.90;1.00;;;;;;5049711;28;20202;-94
2023/05/15 03:42:23;;;;;;;12.63;9.00;;;12.90;1.00;;;;;;5037401;28;20688;-94
2023/05/15 03:44:51;;;;;;;10.53;8.47;;;13.00;1.00;;;;;;5037446;28;20266;-94
2023/05/15 03:47:18;;;;;;;10.57;8.77;;;13.10;1.00;;;;;;5047387;28;20189;-93
2023/05/15 03:49:45;;;;;;;12.03;9.47;;;13.20;99.90;;;;;;5057465;28;20213;-95
2023/05/15 03:52:12;;;;;;;11.23;9.53;;;13.40;99.90;;;;;;5047046;28;20208;-95
2023/05/15 03:54:39;;;;;;;10.27;8.50;;;13.40;99.90;;;;;;5038520;28;20202;-94
2023/05/15 03:57:07;;;;;;;15.27;8.83;;;13.50;99.90;;;;;;5056699;28;20825;-94
2023/05/15 03:59:34;;;;;;;10.67;9.13;;;13.60;99.90;;;;;;5057417;28;20199;-94
2023/05/15 04:02:01;;;;;;;11.83;9.27;;;13.70;2.20;;;;;;5057388;28;20195;-95
2023/05/15 04:04:28;;;;;;;11.53;9.30;;;13.80;1.00;;;;;;5056850;28;20755;-95
2023/05/15 04:06:54;;;;;;;11.63;9.50;;;13.90;1.00;;;;;;5049407;28;20684;-94
2023/05/15 04:09:24;;;;;;;12.27;8.97;;;14.00;1.00;;;;;;5055898;28;20194;-95
2023/05/15 04:11:51;;;;;;;15.40;9.87;;;13.90;1.00;;;;;;5057425;28;20203;-95
2023/05/15 04:14:19;;;;;;;14.00;9.67;;;13.90;1.00;;;;;;5040117;28;20202;-94
2023/05/15 04:16:46;;;;;;;11.87;9.23;;;14.00;43.30;;;;;;5037282;28;20221;-95
2023/05/15 04:19:12;;;;;;;12.73;9.40;;;14.00;18.10;;;;;;5044762;28;20211;-96
2023/05/15 04:21:39;;;;;;;11.70;9.87;;;14.00;57.70;;;;;;5052871;28;20197;-96
2023/05/15 04:24:08;;;;;;;11.27;9.30;;;14.00;99.90;;;;;;5039297;28;20285;-95
2023/05/15 04:26:35;;;;;;;12.40;9.27;;;14.00;99.90;;;;;;5045413;28;20653;-95
2023/05/15 04:29:02;;;;;;;13.80;9.87;;;14.00;99.90;;;;;;5056224;28;20180;-96
2023/05/15 04:31:31;;;;;;;12.23;10.57;;;14.10;99.90;;;;;;5048824;28;20291;-96
2023/05/15 04:33:58;;;;;;;11.77;10.57;;;14.10;1.00;;;;;;5058827;28;20285;-96
2023/05/15 04:36:25;;;;;;;13.30;10.90;;;14.10;1.00;;;;;;5064494;28;20254;-96
2023/05/15 04:38:52;;;;;;;15.23;11.67;;;14.10;1.00;;;;;;5061062;28;20273;-96
2023/05/15 04:41:19;;;;;;;12.53;11.23;;;14.30;1.00;;;;;;5059611;28;20199;-95
2023/05/15 04:43:45;;;;;;;13.70;12.30;;;14.40;99.90;;;;;;5056752;28;20281;-95
2023/05/15 04:46:12;;;;;;;12.70;11.40;;;14.50;99.90;;;;;;5058054;28;20192;-96
2023/05/15 04:48:40;;;;;;;14.35;11.63;;;14.50;99.90;;;;;;5057511;28;20292;-93
2023/05/15 04:51:07;;;;;;;13.77;11.83;;;14.50;99.90;;;;;;5058292;28;20205;-95
2023/05/15 04:53:34;;;;;;;14.77;12.20;;;14.50;99.90;;;;;;5043727;28;20288;-95
2023/05/15 04:56:01;;;;;;;15.33;11.80;;;14.60;99.90;;;;;;5037408;28;20205;-96
2023/05/15 04:58:28;;;;;;;13.20;11.40;;;14.50;99.90;;;;;;5047507;28;20323;-95
2023/05/15 05:00:55;;;;;;;13.90;12.17;;;14.60;99.90;;;;;;5064686;28;20287;-95
2023/05/15 05:03:22;;;;;;;14.77;12.00;;;14.60;99.90;;;;;;5068940;28;20228;-96
2023/05/15 05:05:50;;;;;;;15.50;11.73;;;14.70;99.90;;;;;;5045375;28;20189;-95
2023/05/15 05:08:17;;;;;;;13.90;11.13;;;14.70;83.50;;;;;;5063082;28;20189;-96
2023/05/15 05:10:44;;;;;;;13.53;11.50;;;14.70;99.90;;;;;;5067350;28;20193;-95
2023/05/15 05:13:11;;;;;;;12.63;11.27;;;14.70;99.90;;;;;;5062825;28;20223;-96
2023/05/15 05:15:38;;;;;;;13.57;11.00;;;14.70;99.90;;;;;;5067660;28;20236;-96
2023/05/15 05:18:06;;;;;;;12.37;10.93;;;14.80;22.40;;;;;;5071268;28;20212;-96
2023/05/15 05:20:33;;;;;;;13.48;10.77;;;14.80;1.00;;;;;;5075785;28;20196;-96
2023/05/15 05:23:01;;;;;;;12.23;10.27;;;14.90;1.00;;;;;;5061994;28;20223;-96
2023/05/15 05:25:28;;;;;;;13.30;10.57;;;14.80;1.00;;;;;;5065309;28;20649;-95
2023/05/15 05:27:55;;;;;;;37.55;27.55;;;14.90;1.00;;;;;;5054797;28;20277;-96
2023/05/15 05:30:22;;;;;;;17.95;10.98;;;14.90;1.00;;;;;;5040638;28;20240;-96
2023/05/15 05:32:49;;;;;;;17.50;11.03;;;14.90;1.00;;;;;;5057692;28;20280;-95
2023/05/15 05:35:15;;;;;;;18.73;10.93;;;15.00;1.00;;;;;;5056793;28;20214;-95
2023/05/15 05:37:42;;;;;;;12.07;10.75;;;15.00;1.00;;;;;;5057277;28;20696;-96
2023/05/15 05:40:12;;;;;;;12.30;10.60;;;15.00;1.00;;;;;;5057201;28;20229;-95
2023/05/15 05:42:38;;;;;;;11.63;10.33;;;15.10;1.00;;;;;;5056509;28;20235;-96
2023/05/15 05:45:06;;;;;;;12.38;10.18;;;15.20;1.00;;;;;;5055964;28;20242;-95
2023/05/15 05:47:33;;;;;;;12.70;9.63;;;15.20;1.00;;;;;;5055988;28;20696;-96
2023/05/15 05:50:00;;;;;;;10.65;9.57;;;15.30;1.00;;;;;;5055462;28;20207;-96
2023/05/15 05:52:28;;;;;;;10.68;9.43;;;15.40;1.00;;;;;;5055784;28;20197;-94
2023/05/15 05:54:55;;;;;;;10.60;9.15;;;15.50;1.00;;;;;;5051081;28;20249;-96
2023/05/15 05:57:23;;;;;;;10.05;9.05;;;15.60;1.00;;;;;;5055082;28;20278;-95
2023/05/15 05:59:50;;;;;;;12.90;8.63;;;15.70;1.00;;;;;;5055209;28;20208;-95
2023/05/15 06:02:16;;;;;;;11.48;9.77;;;15.80;1.00;;;;;;5054750;28;20195;-95
2023/05/15 06:04:44;;;;;;;12.02;8.98;;;15.90;1.00;;;;;;5040831;28;20216;-95
2023/05/15 06:07:11;;;;;;;10.00;9.00;;;16.00;1.00;;;;;;5040551;28;20220;-94
2023/05/15 06:09:38;;;;;;;11.10;8.88;;;16.00;1.00;;;;;;5054944;28;20603;-95
2023/05/15 06:12:07;;;;;;;11.30;8.82;;;16.20;1.00;;;;;;5054781;28;20206;-95
2023/05/15 06:14:35;;;;;;;9.55;8.35;;;16.20;1.00;;;;;;5054634;28;20626;-95
2023/05/15 06:17:02;;;;;;;10.85;8.80;;;16.30;1.00;;;;;;5054902;28;20215;-95
2023/05/15 06:19:29;;;;;;;10.23;8.98;;;16.30;1.00;;;;;;5054532;28;20690;-96
2023/05/15 06:21:56;;;;;;;13.55;8.98;;;16.30;1.00;;;;;;5054685;28;20194;-95
2023/05/15 06:24:22;;;;;;;11.40;9.10;;;16.40;1.00;;;;;;5054730;28;20287;-95
2023/05/15 06:26:49;;;;;;;10.25;9.15;;;16.40;1.00;;;;;;5054771;28;20203;-95
2023/05/15 06:29:17;;;;;;;9.35;8.45;;;16.50;1.00;;;;;;5054576;28;20203;-96
2023/05/15 06:31:45;;;;;;;9.32;8.32;;;16.50;1.00;;;;;;5054559;28;20276;-94
2023/05/15 06:34:12;;;;;;;11.90;8.45;;;16.60;1.00;;;;;;5054301;28;20287;-95
2023/05/15 06:36:39;;;;;;;11.27;9.30;;;16.80;1.00;;;;;;5054320;28;20212;-94
2023/05/15 06:39:09;;;;;;;14.57;8.70;;;17.10;1.00;;;;;;5054973;28;20221;-94
2023/05/15 06:41:36;;;;;;;8.48;7.57;;;17.50;99.90;;;;;;5035027;28;20181;-94
2023/05/15 06:44:03;;;;;;;8.70;7.68;;;17.90;99.90;;;;;;5033867;28;20249;-94
2023/05/15 06:46:29;;;;;;;9.15;7.28;;;18.10;1.00;;;;;;5034654;28;20634;-95
2023/05/15 06:48:58;;;;;;;9.60;7.32;;;18.40;1.00;;;;;;5034208;28;20543;-93
2023/05/15 06:51:24;;;;;;;9.65;7.65;;;18.50;1.00;;;;;;5038863;28;20285;-96
2023/05/15 06:53:51;;;;;;;8.50;7.70;;;18.60;1.00;;;;;;5074560;28;20204;-93
2023/05/15 06:56:18;;;;;;;9.40;7.32;;;18.70;1.00;;;;;;5074684;28;20298;-94
2023/05/15 06:58:45;;;;;;;8.75;7.00;;;18.80;1.00;;;;;;5064249;28;20224;-94
2023/05/15 07:01:11;;;;;;;13.93;7.93;;;19.00;1.00;;;;;;5045514;28;20202;-93
2023/05/15 07:03:38;;;;;;;7.57;6.50;;;19.10;1.00;;;;;;5034258;28;20200;-93
2023/05/15 07:06:07;;;;;;;8.20;6.45;;;19.30;1.00;;;;;;5034558;28;20241;-92
2023/05/15 07:08:34;;;;;;;9.23;6.32;;;19.50;1.00;;;;;;5054091;28;20200;-93
2023/05/15 07:11:00;;;;;;;8.48;6.38;;;19.50;1.00;;;;;;5054107;28;20266;-94
2023/05/15 07:13:27;;;;;;;8.10;6.07;;;19.60;1.00;;;;;;5054095;28;20243;-93
2023/05/15 07:15:54;;;;;;;10.18;6.43;;;19.50;1.00;;;;;;5052113;28;20210;-93
2023/05/15 07:18:21;;;;;;;8.80;6.30;;;19.40;1.00;;;;;;5044447;28;20236;-92
2023/05/15 07:20:48;;;;;;;8.88;6.70;;;19.20;1.00;;;;;;5052741;28;20679;-94
2023/05/15 07:23:16;;;;;;;10.27;7.10;;;19.10;1.00;;;;;;5045760;28;20199;-93
2023/05/15 07:25:42;;;;;;;10.25;6.88;;;19.00;1.00;;;;;;5052891;28;20201;-93
2023/05/15 07:28:10;;;;;;;10.02;6.75;;;18.90;1.00;;;;;;5044531;28;20190;-94
2023/05/15 07:30:36;;;;;;;9.07;7.00;;;18.80;1.00;;;;;;5064528;28;20196;-93
2023/05/15 07:33:03;;;;;;;7.15;6.20;;;18.70;1.00;;;;;;5058177;28;20562;-94
2023/05/15 07:35:30;;;;;;;8.15;6.63;;;18.70;1.00;;;;;;5055694;28;20209;-95
2023/05/15 07:37:57;;;;;;;7.05;6.35;;;18.70;1.00;;;;;;5048478;28;20240;-93
2023/05/15 07:40:25;;;;;;;7.75;6.55;;;18.60;1.00;;;;;;5074185;28;20690;-93
2023/05/15 07:42:52;;;;;;;8.32;6.60;;;18.70;1.00;;;;;;5039225;28;20202;-95
2023/05/15 07:45:19;;;;;;;8.88;6.28;;;18.90;1.00;;;;;;5046341;28;20236;-95
2023/05/15 07:47:46;;;;;;;7.20;6.38;;;19.30;1.00;;;;;;5062070;28;20192;-93
2023/05/15 07:50:13;;;;;;;6.90;6.15;;;19.60;1.00;;;;;;5046839;28;20218;-95
2023/05/15 07:52:40;;;;;;;6.68;6.03;;;19.80;1.00;;;;;;5048032;28;20567;-94
2023/05/15 07:55:09;;;;;;;9.35;6.10;;;19.80;1.00;;;;;;5053631;28;20197;-93
2023/05/15 07:57:39;;;;;;;7.97;5.95;;;19.90;1.00;;;;;;5068543;28;20227;-96
2023/05/15 08:00:09;;;;;;;10.10;6.47;;;19.80;1.00;;;;;;5057969;28;20201;-96
2023/05/15 08:02:37;;;;;;;11.77;6.60;;;19.70;1.00;;;;;;5037110;28;20233;-94
2023/05/15 08:05:04;;;;;;;8.40;6.75;;;19.70;1.00;;;;;;5039491;28;20206;-96
2023/05/15 08:07:32;;;;;;;9.70;7.30;;;19.70;1.00;;;;;;5060028;28;20550;-95
2023/05/15 08:09:59;;;;;;;10.45;7.00;;;19.80;1.00;;;;;;5063208;28;20202;-96
2023/05/15 08:12:26;;;;;;;10.02;6.80;;;19.80;1.00;;;;;;5061980;28;20204;-95
2023/05/15 08:14:56;;;;;;;8.48;6.18;;;19.80;1.00;;;;;;5050669;28;20212;-93
2023/05/15 08:17:24;;;;;;;7.20;6.50;;;19.80;1.00;;;;;;5037326;28;20213;-95
2023/05/15 08:19:51;;;;;;;9.70;6.50;;;19.90;1.00;;;;;;5037422;28;20537;-95
2023/05/15 08:22:18;;;;;;;9.93;6.07;;;20.10;1.00;;;;;;5046007;28;20211;-95
2023/05/15 08:24:45;;;;;;;7.10;6.40;;;20.30;1.00;;;;;;5050827;28;20204;-96
2023/05/15 08:27:11;;;;;;;7.00;6.28;;;20.30;99.90;;;;;;5050395;28;20201;-95
2023/05/15 08:29:39;;;;;;;7.38;6.63;;;20.40;1.00;;;;;;5053920;28;20197;-95
2023/05/15 08:32:09;;;;;;;9.75;7.00;;;20.50;99.90;;;;;;5077098;28;20215;-94
2023/05/15 08:34:37;;;;;;;9.65;6.70;;;20.60;99.90;;;;;;5054512;28;20202;-96
2023/05/15 08:37:05;;;;;;;9.20;7.30;;;20.80;99.90;;;;;;5045511;28;20208;-96
2023/05/15 08:39:32;;;;;;;8.77;6.97;;;20.80;99.90;;;;;;5070530;28;20216;-96
2023/05/15 08:42:08;;;;;;;9.70;7.50;;;20.90;99.90;;;;;;5059577;28;20197;-96
2023/05/15 08:44:35;;;;;;;9.25;6.97;;;20.90;99.90;;;;;;5048118;28;20235;-96
2023/05/15 08:47:02;;;;;;;8.02;7.22;;;20.90;99.90;;;;;;5048456;28;20209;-95
2023/05/15 08:49:37;;;;;;;7.65;6.80;;;20.90;99.90;;;;;;5037951;28;20197;-94
2023/05/15 08:52:04;;;;;;;7.95;7.15;;;20.90;99.90;;;;;;5037434;28;20209;-95
2023/05/15 08:54:32;;;;;;;10.95;7.38;;;20.80;99.90;;;;;;5051039;28;20675;-95
2023/05/15 08:56:59;;;;;;;9.25;7.28;;;20.80;99.90;;;;;;5046845;28;20201;-94
2023/05/15 08:59:26;;;;;;;8.80;7.55;;;20.70;99.90;;;;;;5060226;28;20215;-95
2023/05/15 09:01:54;;;;;;;7.80;7.00;;;20.70;99.90;;;;;;5062105;28;20205;-95
2023/05/15 09:04:21;;;;;;;9.93;7.57;;;20.70;99.90;;;;;;5075956;28;20196;-96
2023/05/15 09:06:50;;;;;;;8.93;7.47;;;20.60;99.90;;;;;;5063844;28;20201;-96
2023/05/15 09:09:19;;;;;;;9.45;7.45;;;20.40;99.90;;;;;;5037026;28;20221;-95
2023/05/15 09:11:48;;;;;;;8.65;7.20;;;20.30;99.90;;;;;;5054359;28;20202;-95
2023/05/15 09:14:15;;;;;;;10.38;7.40;;;20.20;99.90;;;;;;5049716;28;20196;-95
2023/05/15 09:16:41;;;;;;;8.68;7.40;;;20.10;99.90;;;;;;5052136;28;20193;-96
2023/05/15 09:19:10;;;;;;;8.13;7.28;;;19.90;99.90;;;;;;5066613;28;20212;-96
2023/05/15 09:21:37;;;;;;;10.23;7.22;;;19.80;99.90;;;;;;5040606;28;20202;-95
2023/05/15 09:24:20;;;;;;;9.38;6.63;;;19.80;99.90;;;;;;5056039;28;20683;-95
2023/05/15 09:26:48;;;;;;;7.32;6.07;;;19.90;99.90;;;;;;5066356;28;20644;-93
2023/05/15 09:29:16;;;;;;;11.75;5.85;;;20.00;99.90;;;;;;5054400;28;20219;-95
2023/05/15 09:31:45;;;;;;;8.32;6.50;;;20.10;99.90;;;;;;5050944;28;20231;-96
2023/05/15 09:34:12;;;;;;;6.10;5.20;;;20.30;99.90;;;;;;5049717;28;20201;-96
2023/05/15 09:36:43;;;;;;;6.72;5.47;;;20.50;99.90;;;;;;5065309;28;20215;-94
2023/05/15 09:39:10;;;;;;;8.55;5.57;;;20.50;99.90;;;;;;5038899;28;20213;-96
2023/05/15 09:41:44;;;;;;;7.97;5.20;;;20.50;99.90;;;;;;5049980;28;20216;-95
2023/05/15 09:44:18;;;;;;;6.85;5.38;;;20.60;99.90;;;;;;5054370;28;20233;-95
2023/05/15 09:46:45;;;;;;;7.93;5.90;;;20.70;99.90;;;;;;5035270;28;20733;-96
2023/05/15 09:49:12;;;;;;;6.35;5.35;;;20.90;99.90;;;;;;5035333;28;20201;-94
2023/05/15 09:51:39;;;;;;;10.02;3.95;;;21.20;99.90;;;;;;5046294;28;20201;-95
2023/05/15 09:54:06;;;;;;;4.88;3.95;;;21.40;99.90;;;;;;5035923;28;20665;-95
2023/05/15 09:56:33;;;;;;;5.55;3.70;;;21.40;99.90;;;;;;5035185;28;20201;-95
2023/05/15 09:59:01;;;;;;;8.55;4.18;;;21.50;99.90;;;;;;5051592;28;20213;-95
2023/05/15 10:01:28;;;;;;;4.85;3.30;;;21.70;99.90;;;;;;5052733;28;21993;-96
2023/05/15 10:03:59;;;;;;;5.22;3.72;;;21.70;99.90;;;;;;5035751;28;20204;-96
2023/05/15 10:06:26;;;;;;;3.55;3.03;;;21.80;99.90;;;;;;5051077;28;20213;-94
2023/05/15 10:08:53;;;;;;;3.30;3.00;;;21.80;99.90;;;;;;5053932;28;20192;-95
2023/05/15 10:11:21;;;;;;;3.45;3.15;;;21.60;99.90;;;;;;5036478;28;20205;-96
2023/05/15 10:13:48;;;;;;;4.72;3.17;;;21.50;99.90;;;;;;5035529;28;20209;-95
2023/05/15 10:16:21;;;;;;;5.95;3.40;;;21.40;99.90;;;;;;5035197;28;20582;-96
2023/05/15 10:18:48;;;;;;;4.88;3.42;;;21.10;99.90;;;;;;5039951;28;20703;-96
2023/05/15 10:21:17;;;;;;;3.90;3.50;;;21.10;99.90;;;;;;5053613;28;20228;-95
2023/05/15 10:23:45;;;;;;;5.65;3.78;;;21.20;99.90;;;;;;5035188;28;20206;-95
2023/05/15 10:26:20;;;;;;;4.72;3.38;;;21.30;99.90;;;;;;5035266;28;20662;-94
2023/05/15 10:28:48;;;;;;;4.80;3.60;;;21.30;99.90;;;;;;5035673;28;20182;-96
2023/05/15 10:31:18;;;;;;;8.48;4.28;;;21.10;99.90;;;;;;5046065;28;20201;-93
2023/05/15 10:33:45;;;;;;;5.15;3.17;;;20.70;99.90;;;;;;5055208;28;20657;-95
2023/05/15 10:36:14;;;;;;;6.28;3.47;;;20.20;99.90;;;;;;5057218;28;20196;-95
2023/05/15 10:38:42;;;;;;;5.85;3.97;;;19.60;99.90;;;;;;5061203;28;20221;-96
2023/05/15 10:41:11;;;;;;;4.07;3.67;;;19.10;99.90;;;;;;5065369;28;20204;-96
2023/05/15 10:43:39;;;;;;;6.20;4.07;;;18.70;99.90;;;;;;5055962;28;20284;-95
2023/05/15 10:46:06;;;;;;;5.03;4.53;;;18.50;99.90;;;;;;5053453;28;20198;-96
2023/05/15 10:48:35;;;;;;;4.55;4.05;;;18.40;99.90;;;;;;5054562;28;20201;-96
2023/05/15 10:51:02;;;;;;;5.32;4.07;;;18.10;99.90;;;;;;5062872;28;20216;-95
2023/05/15 10:53:29;;;;;;;4.50;3.70;;;18.00;1.00;;;;;;5074882;28;20196;-96
2023/05/15 10:55:56;;;;;;;4.38;3.97;;;17.80;1.00;;;;;;5049065;28;20231;-96
2023/05/15 10:58:24;;;;;;;6.40;4.13;;;17.50;1.00;;;;;;5048063;28;20224;-96
2023/05/15 11:00:51;;;;;;;5.15;3.88;;;17.30;1.00;;;;;;5051014;28;20193;-96
2023/05/15 11:03:37;;;;;;;4.75;3.90;;;17.10;1.00;;;;;;5056682;28;20200;-96
2023/05/15 11:06:09;;;;;;;6.50;4.32;;;17.00;1.00;;;;;;5062538;28;20204;-96
2023/05/15 11:08:36;;;;;;;5.15;3.92;;;17.10;1.00;;;;;;5040404;28;20229;-96
2023/05/15 11:11:03;;;;;;;5.72;4.38;;;17.20;1.00;;;;;;5065217;28;20216;-96
2023/05/15 11:14:03;;;;;;;5.40;4.40;;;17.40;1.00;;;;;;5073544;28;20639;-95
2023/05/15 11:17:03;;;;;;;5.03;4.22;;;17.70;1.00;;;;;;5050193;28;20289;-96
2023/05/15 11:20:00;;;;;;;4.63;3.95;;;18.00;1.00;;;;;;5040101;28;20232;-96
2023/05/15 11:22:29;;;;;;;7.68;4.00;;;18.00;1.00;;;;;;5048733;28;20200;-96
2023/05/15 11:25:00;;;;;;;4.45;4.05;;;17.80;1.00;;;;;;5045065;28;20203;-93
2023/05/15 11:27:28;;;;;;;6.38;3.97;;;17.70;1.00;;;;;;5046195;28;20701;-94
2023/05/15 11:30:09;;;;;;;4.70;3.70;;;17.70;1.00;;;;;;5070346;28;20191;-94
2023/05/15 11:32:55;;;;;;;4.78;3.92;;;17.60;1.00;;;;;;5037708;28;20676;-94
2023/05/15 11:35:27;;;;;;;4.60;3.72;;;17.60;1.00;;;;;;5047247;28;20217;-94
2023/05/15 11:37:55;;;;;;;6.03;4.50;;;17.70;1.00;;;;;;5076624;28;20180;-95
2023/05/15 11:40:24;;;;;;;4.10;3.65;;;17.80;1.00;;;;;;5038074;28;20225;-95
2023/05/15 11:43:05;;;;;;;5.32;4.07;;;17.90;1.00;;;;;;5040278;28;20208;-94
2023/05/15 11:45:35;;;;;;;4.10;3.70;;;17.80;1.00;;;;;;5057217;28;20233;-95
2023/05/15 11:48:03;;;;;;;5.13;4.03;;;17.90;1.00;;;;;;5051646;28;20210;-93
2023/05/15 11:50:33;;;;;;;6.25;3.80;;;17.90;1.00;;;;;;5039145;28;20196;-94
2023/05/15 11:53:06;;;;;;;4.15;3.55;;;17.90;1.00;;;;;;5048968;28;20255;-95
2023/05/15 11:55:34;;;;;;;4.68;3.42;;;17.90;1.00;;;;;;5063267;28;20188;-95
2023/05/15 11:58:01;;;;;;;4.10;3.70;;;17.80;1.00;;;;;;5069220;28;20211;-95
2023/05/15 12:00:28;;;;;;;6.32;3.45;;;17.80;1.00;;;;;;5058647;28;20254;-94
2023/05/15 12:02:55;;;;;;;3.92;3.30;;;17.80;1.00;;;;;;5037405;28;20209;-92
2023/05/15 12:05:22;;;;;;;3.92;3.42;;;18.00;1.00;;;;;;5051209;28;20188;-96
2023/05/15 12:07:50;;;;;;;3.40;2.97;;;18.10;1.00;;;;;;5063183;28;20204;-94
2023/05/15 12:10:17;;;;;;;3.55;3.22;;;18.30;1.00;;;;;;5037435;28;20197;-95
2023/05/15 12:12:45;;;;;;;5.28;3.38;;;18.50;1.00;;;;;;5048063;28;20202;-95
2023/05/15 12:15:14;;;;;;;4.05;2.90;;;18.70;1.00;;;;;;5037040;28;20204;-95
2023/05/15 12:17:42;;;;;;;4.28;3.38;;;18.80;1.00;;;;;;5049201;28;20675;-96
2023/05/15 12:20:12;;;;;;;5.88;3.13;;;18.70;1.00;;;;;;5052526;28;20221;-95
2023/05/15 12:22:39;;;;;;;5.32;3.35;;;18.40;1.00;;;;;;5036870;28;20201;-96
2023/05/15 12:25:08;;;;;;;4.30;3.47;;;18.40;1.00;;;;;;5074313;28;20206;-94
2023/05/15 12:27:36;;;;;;;4.35;3.22;;;18.30;1.00;;;;;;5058749;28;20206;-94
2023/05/15 12:30:04;;;;;;;4.35;3.45;;;18.20;1.00;;;;;;5056687;28;20198;-95
2023/05/15 12:32:33;;;;;;;3.80;3.30;;;18.00;1.00;;;;;;5076714;28;20555;-94
2023/05/15 12:35:00;;;;;;;3.80;3.42;;;17.70;1.00;;;;;;5058917;28;20691;-92
2023/05/15 12:37:27;;;;;;;3.60;3.17;;;17.60;1.00;;;;;;5076312;28;20200;-95
2023/05/15 12:39:56;;;;;;;6.15;3.83;;;17.70;1.00;;;;;;5063874;28;20666;-93
2023/05/15 12:42:24;;;;;;;4.00;3.10;;;17.80;1.00;;;;;;5056959;28;20196;-94
2023/05/15 12:44:52;;;;;;;3.20;2.90;;;18.20;1.00;;;;;;5052988;28;20230;-93
2023/05/15 12:47:26;;;;;;;3.13;2.83;;;18.40;1.00;;;;;;5040799;28;20669;-92
2023/05/15 12:49:56;;;;;;;3.30;2.90;;;18.40;1.00;;;;;;5036551;28;20193;-93